sensor_id;sensor_type;location;lat;lon;timestamp;pressure;altitude;pressure_sealevel;temperature
31528;BMP280;10206;48.012;10.030;2024-02-21T00:01:07;95737.13;;;6.00
31528;BMP280;10206;48.012;10.030;2024-02-21T00:03:33;95727.47;;;6.04
31528;BMP280;10206;48.012;10.030;2024-02-21T00:05:59;95728.06;;;5.97
31528;BMP280;10206;48.012;10.030;2024-02-21T00:08:25;95717.22;;;5.97
31528;BMP280;10206;48.012;10.030;2024-02-21T00:10:51;95715.66;;;6.02
31528;BMP280;10206;48.012;10.030;2024-02-21T00:13:17;95715.28;;;6.16
31528;BMP280;10206;48.012;10.030;2024-02-21T00:15:43;95712.25;;;6.20
31528;BMP280;10206;48.012;10.030;2024-02-21T00:18:10;95706.34;;;6.21
31528;BMP280;10206;48.012;10.030;2024-02-21T00:20:36;95708.84;;;6.19
31528;BMP280;10206;48.012;10.030;2024-02-21T00:23:03;95709.84;;;6.16
31528;BMP280;10206;48.012;10.030;2024-02-21T00:25:29;95707.44;;;6.13
31528;BMP280;10206;48.012;10.030;2024-02-21T00:27:55;95706.78;;;6.07
31528;BMP280;10206;48.012;10.030;2024-02-21T00:30:21;95703.91;;;5.99
31528;BMP280;10206;48.012;10.030;2024-02-21T00:32:48;95704.75;;;6.13
31528;BMP280;10206;48.012;10.030;2024-02-21T00:35:14;95705.97;;;6.12
31528;BMP280;10206;48.012;10.030;2024-02-21T00:37:40;95694.47;;;6.06
31528;BMP280;10206;48.012;10.030;2024-02-21T00:40:07;95695.66;;;5.86
31528;BMP280;10206;48.012;10.030;2024-02-21T00:42:33;95690.19;;;5.92
31528;BMP280;10206;48.012;10.030;2024-02-21T00:44:59;95698.03;;;5.95
31528;BMP280;10206;48.012;10.030;2024-02-21T00:47:25;95702.97;;;5.91
31528;BMP280;10206;48.012;10.030;2024-02-21T00:49:51;95700.63;;;6.06
31528;BMP280;10206;48.012;10.030;2024-02-21T00:52:17;95695.31;;;5.95
31528;BMP280;10206;48.012;10.030;2024-02-21T00:54:44;95695.78;;;5.99
31528;BMP280;10206;48.012;10.030;2024-02-21T00:57:10;95691.75;;;6.06
31528;BMP280;10206;48.012;10.030;2024-02-21T00:59:37;95692.63;;;6.14
31528;BMP280;10206;48.012;10.030;2024-02-21T01:02:03;95691.59;;;6.17
31528;BMP280;10206;48.012;10.030;2024-02-21T01:04:29;95689.72;;;6.12
31528;BMP280;10206;48.012;10.030;2024-02-21T01:06:55;95683.72;;;6.19
31528;BMP280;10206;48.012;10.030;2024-02-21T01:09:21;95682.91;;;6.24
31528;BMP280;10206;48.012;10.030;2024-02-21T01:11:47;95679.25;;;6.21
31528;BMP280;10206;48.012;10.030;2024-02-21T01:14:16;95676.56;;;6.21
31528;BMP280;10206;48.012;10.030;2024-02-21T01:16:42;95677.34;;;6.16
31528;BMP280;10206;48.012;10.030;2024-02-21T01:19:08;95659.72;;;6.28
31528;BMP280;10206;48.012;10.030;2024-02-21T01:21:34;95661.78;;;6.22
31528;BMP280;10206;48.012;10.030;2024-02-21T01:24:02;95661.03;;;6.22
31528;BMP280;10206;48.012;10.030;2024-02-21T01:26:28;95652.97;;;6.16
31528;BMP280;10206;48.012;10.030;2024-02-21T01:28:54;95664.47;;;6.22
31528;BMP280;10206;48.012;10.030;2024-02-21T01:31:20;95662.28;;;6.21
31528;BMP280;10206;48.012;10.030;2024-02-21T01:33:46;95653.28;;;6.13
31528;BMP280;10206;48.012;10.030;2024-02-21T01:36:12;95652.28;;;5.92
31528;BMP280;10206;48.012;10.030;2024-02-21T01:38:38;95649.19;;;5.82
31528;BMP280;10206;48.012;10.030;2024-02-21T01:41:04;95638.41;;;5.77
31528;BMP280;10206;48.012;10.030;2024-02-21T01:43:30;95637.56;;;5.87
31528;BMP280;10206;48.012;10.030;2024-02-21T01:45:57;95635.38;;;6.04
31528;BMP280;10206;48.012;10.030;2024-02-21T01:48:25;95640.88;;;6.17
31528;BMP280;10206;48.012;10.030;2024-02-21T01:50:52;95631.00;;;6.20
31528;BMP280;10206;48.012;10.030;2024-02-21T01:53:27;95626.97;;;6.08
31528;BMP280;10206;48.012;10.030;2024-02-21T01:55:55;95629.41;;;6.11
31528;BMP280;10206;48.012;10.030;2024-02-21T01:58:22;95625.47;;;6.12
31528;BMP280;10206;48.012;10.030;2024-02-21T02:00:48;95628.91;;;6.13
31528;BMP280;10206;48.012;10.030;2024-02-21T02:03:16;95628.50;;;6.03
31528;BMP280;10206;48.012;10.030;2024-02-21T02:05:49;95627.16;;;5.91
31528;BMP280;10206;48.012;10.030;2024-02-21T02:08:17;95618.91;;;6.02
31528;BMP280;10206;48.012;10.030;2024-02-21T02:10:44;95623.25;;;6.11
31528;BMP280;10206;48.012;10.030;2024-02-21T02:13:10;95620.59;;;5.87
31528;BMP280;10206;48.012;10.030;2024-02-21T02:15:45;95607.78;;;5.87
31528;BMP280;10206;48.012;10.030;2024-02-21T02:18:12;95600.78;;;5.97
31528;BMP280;10206;48.012;10.030;2024-02-21T02:20:38;95591.50;;;6.11
31528;BMP280;10206;48.012;10.030;2024-02-21T02:23:11;95594.84;;;6.17
31528;BMP280;10206;48.012;10.030;2024-02-21T02:25:38;95591.91;;;6.34
31528;BMP280;10206;48.012;10.030;2024-02-21T02:28:08;95582.97;;;6.20
31528;BMP280;10206;48.012;10.030;2024-02-21T02:30:35;95584.78;;;6.31
31528;BMP280;10206;48.012;10.030;2024-02-21T02:33:03;95585.63;;;6.26
31528;BMP280;10206;48.012;10.030;2024-02-21T02:35:29;95577.34;;;6.18
31528;BMP280;10206;48.012;10.030;2024-02-21T02:37:55;95567.75;;;6.17
31528;BMP280;10206;48.012;10.030;2024-02-21T02:40:22;95568.78;;;6.14
31528;BMP280;10206;48.012;10.030;2024-02-21T02:42:48;95569.16;;;6.05
31528;BMP280;10206;48.012;10.030;2024-02-21T02:45:15;95557.75;;;6.12
31528;BMP280;10206;48.012;10.030;2024-02-21T02:47:42;95563.16;;;6.12
31528;BMP280;10206;48.012;10.030;2024-02-21T02:50:08;95559.63;;;6.17
31528;BMP280;10206;48.012;10.030;2024-02-21T02:52:34;95555.38;;;6.22
31528;BMP280;10206;48.012;10.030;2024-02-21T02:55:00;95559.72;;;6.12
31528;BMP280;10206;48.012;10.030;2024-02-21T02:57:27;95560.97;;;6.11
31528;BMP280;10206;48.012;10.030;2024-02-21T02:59:54;95555.47;;;6.16
31528;BMP280;10206;48.012;10.030;2024-02-21T03:02:20;95551.22;;;6.21
31528;BMP280;10206;48.012;10.030;2024-02-21T03:04:46;95547.34;;;6.16
31528;BMP280;10206;48.012;10.030;2024-02-21T03:07:13;95545.06;;;6.20
31528;BMP280;10206;48.012;10.030;2024-02-21T03:09:40;95551.34;;;6.28
31528;BMP280;10206;48.012;10.030;2024-02-21T03:12:06;95543.66;;;6.32
31528;BMP280;10206;48.012;10.030;2024-02-21T03:14:33;95551.56;;;6.30
31528;BMP280;10206;48.012;10.030;2024-02-21T03:16:59;95552.28;;;6.31
31528;BMP280;10206;48.012;10.030;2024-02-21T03:19:25;95545.91;;;6.28
31528;BMP280;10206;48.012;10.030;2024-02-21T03:21:52;95541.75;;;6.27
31528;BMP280;10206;48.012;10.030;2024-02-21T03:24:19;95533.94;;;6.24
31528;BMP280;10206;48.012;10.030;2024-02-21T03:26:46;95529.25;;;6.24
31528;BMP280;10206;48.012;10.030;2024-02-21T03:29:15;95536.56;;;6.29
31528;BMP280;10206;48.012;10.030;2024-02-21T03:31:42;95537.91;;;6.23
31528;BMP280;10206;48.012;10.030;2024-02-21T03:34:10;95540.50;;;6.28
31528;BMP280;10206;48.012;10.030;2024-02-21T03:36:36;95539.47;;;6.31
31528;BMP280;10206;48.012;10.030;2024-02-21T03:39:02;95530.47;;;6.23
31528;BMP280;10206;48.012;10.030;2024-02-21T03:41:28;95531.16;;;6.29
31528;BMP280;10206;48.012;10.030;2024-02-21T03:43:54;95529.66;;;6.28
31528;BMP280;10206;48.012;10.030;2024-02-21T03:46:21;95533.63;;;6.27
31528;BMP280;10206;48.012;10.030;2024-02-21T03:48:47;95529.09;;;6.36
31528;BMP280;10206;48.012;10.030;2024-02-21T03:51:13;95529.38;;;6.32
31528;BMP280;10206;48.012;10.030;2024-02-21T03:53:41;95528.31;;;6.22
31528;BMP280;10206;48.012;10.030;2024-02-21T03:56:07;95521.50;;;6.15
31528;BMP280;10206;48.012;10.030;2024-02-21T03:58:33;95513.69;;;6.12
31528;BMP280;10206;48.012;10.030;2024-02-21T04:01:03;95511.78;;;6.07
31528;BMP280;10206;48.012;10.030;2024-02-21T04:03:31;95500.50;;;6.03
31528;BMP280;10206;48.012;10.030;2024-02-21T04:05:57;95500.63;;;6.10
31528;BMP280;10206;48.012;10.030;2024-02-21T04:08:23;95509.38;;;6.03
31528;BMP280;10206;48.012;10.030;2024-02-21T04:10:49;95512.88;;;5.98
31528;BMP280;10206;48.012;10.030;2024-02-21T04:13:16;95511.84;;;6.01
31528;BMP280;10206;48.012;10.030;2024-02-21T04:15:42;95516.91;;;5.92
31528;BMP280;10206;48.012;10.030;2024-02-21T04:18:08;95510.59;;;6.02
31528;BMP280;10206;48.012;10.030;2024-02-21T04:20:34;95500.50;;;6.03
31528;BMP280;10206;48.012;10.030;2024-02-21T04:23:01;95491.78;;;5.91
31528;BMP280;10206;48.012;10.030;2024-02-21T04:25:27;95486.59;;;6.12
31528;BMP280;10206;48.012;10.030;2024-02-21T04:27:53;95478.75;;;6.08
31528;BMP280;10206;48.012;10.030;2024-02-21T04:30:19;95480.81;;;6.02
31528;BMP280;10206;48.012;10.030;2024-02-21T04:32:45;95470.88;;;5.92
31528;BMP280;10206;48.012;10.030;2024-02-21T04:35:11;95466.94;;;5.93
31528;BMP280;10206;48.012;10.030;2024-02-21T04:37:37;95462.91;;;5.99
31528;BMP280;10206;48.012;10.030;2024-02-21T04:40:04;95460.28;;;5.94
31528;BMP280;10206;48.012;10.030;2024-02-21T04:42:30;95457.38;;;6.05
31528;BMP280;10206;48.012;10.030;2024-02-21T04:44:56;95446.47;;;6.10
31528;BMP280;10206;48.012;10.030;2024-02-21T04:47:22;95444.63;;;6.18
31528;BMP280;10206;48.012;10.030;2024-02-21T04:49:51;95444.72;;;6.13
31528;BMP280;10206;48.012;10.030;2024-02-21T04:52:17;95437.97;;;6.19
31528;BMP280;10206;48.012;10.030;2024-02-21T04:54:43;95434.97;;;6.23
31528;BMP280;10206;48.012;10.030;2024-02-21T04:57:09;95423.94;;;6.34
31528;BMP280;10206;48.012;10.030;2024-02-21T04:59:45;95425.47;;;6.43
31528;BMP280;10206;48.012;10.030;2024-02-21T05:02:13;95417.50;;;6.50
31528;BMP280;10206;48.012;10.030;2024-02-21T05:04:40;95426.03;;;6.54
31528;BMP280;10206;48.012;10.030;2024-02-21T05:07:07;95427.91;;;6.59
31528;BMP280;10206;48.012;10.030;2024-02-21T05:09:34;95429.81;;;6.64
31528;BMP280;10206;48.012;10.030;2024-02-21T05:12:00;95432.31;;;6.62
31528;BMP280;10206;48.012;10.030;2024-02-21T05:14:26;95425.22;;;6.59
31528;BMP280;10206;48.012;10.030;2024-02-21T05:16:55;95421.69;;;6.64
31528;BMP280;10206;48.012;10.030;2024-02-21T05:19:21;95407.78;;;6.55
31528;BMP280;10206;48.012;10.030;2024-02-21T05:21:47;95407.59;;;6.66
31528;BMP280;10206;48.012;10.030;2024-02-21T05:24:13;95404.69;;;6.77
31528;BMP280;10206;48.012;10.030;2024-02-21T05:26:39;95397.81;;;6.76
31528;BMP280;10206;48.012;10.030;2024-02-21T05:29:06;95395.91;;;6.45
31528;BMP280;10206;48.012;10.030;2024-02-21T05:34:17;95372.53;;;6.28
31528;BMP280;10206;48.012;10.030;2024-02-21T05:36:43;95363.38;;;6.31
31528;BMP280;10206;48.012;10.030;2024-02-21T05:39:10;95370.19;;;6.38
31528;BMP280;10206;48.012;10.030;2024-02-21T05:41:36;95364.53;;;6.23
31528;BMP280;10206;48.012;10.030;2024-02-21T05:44:02;95366.34;;;6.02
31528;BMP280;10206;48.012;10.030;2024-02-21T05:46:28;95360.41;;;5.90
31528;BMP280;10206;48.012;10.030;2024-02-21T05:48:54;95356.00;;;5.87
31528;BMP280;10206;48.012;10.030;2024-02-21T05:51:20;95355.25;;;5.74
31528;BMP280;10206;48.012;10.030;2024-02-21T05:53:47;95362.56;;;5.60
31528;BMP280;10206;48.012;10.030;2024-02-21T05:56:13;95356.38;;;5.46
31528;BMP280;10206;48.012;10.030;2024-02-21T05:58:40;95359.25;;;5.35
31528;BMP280;10206;48.012;10.030;2024-02-21T06:01:07;95346.59;;;5.25
31528;BMP280;10206;48.012;10.030;2024-02-21T06:03:33;95353.47;;;5.26
31528;BMP280;10206;48.012;10.030;2024-02-21T06:06:00;95352.53;;;5.04
31528;BMP280;10206;48.012;10.030;2024-02-21T06:08:26;95341.41;;;5.08
31528;BMP280;10206;48.012;10.030;2024-02-21T06:10:52;95342.34;;;5.10
31528;BMP280;10206;48.012;10.030;2024-02-21T06:13:25;95352.22;;;5.08
31528;BMP280;10206;48.012;10.030;2024-02-21T06:15:52;95345.00;;;4.97
31528;BMP280;10206;48.012;10.030;2024-02-21T06:18:18;95345.16;;;5.05
31528;BMP280;10206;48.012;10.030;2024-02-21T06:20:45;95346.31;;;5.09
31528;BMP280;10206;48.012;10.030;2024-02-21T06:23:16;95352.16;;;5.14
31528;BMP280;10206;48.012;10.030;2024-02-21T06:25:42;95345.38;;;5.26
31528;BMP280;10206;48.012;10.030;2024-02-21T06:28:09;95355.56;;;5.20
31528;BMP280;10206;48.012;10.030;2024-02-21T06:30:36;95350.44;;;5.16
31528;BMP280;10206;48.012;10.030;2024-02-21T06:33:02;95352.53;;;5.42
31528;BMP280;10206;48.012;10.030;2024-02-21T06:35:28;95343.63;;;5.60
31528;BMP280;10206;48.012;10.030;2024-02-21T06:37:55;95333.03;;;5.62
31528;BMP280;10206;48.012;10.030;2024-02-21T06:40:22;95326.91;;;5.61
31528;BMP280;10206;48.012;10.030;2024-02-21T06:42:49;95327.47;;;5.86
31528;BMP280;10206;48.012;10.030;2024-02-21T06:45:15;95325.13;;;5.96
31528;BMP280;10206;48.012;10.030;2024-02-21T06:47:42;95326.34;;;5.95
31528;BMP280;10206;48.012;10.030;2024-02-21T06:50:09;95319.41;;;5.99
31528;BMP280;10206;48.012;10.030;2024-02-21T06:52:36;95329.22;;;6.55
31528;BMP280;10206;48.012;10.030;2024-02-21T06:55:02;95322.72;;;6.71
31528;BMP280;10206;48.012;10.030;2024-02-21T06:57:31;95324.88;;;6.99
31528;BMP280;10206;48.012;10.030;2024-02-21T06:59:57;95328.47;;;7.14
31528;BMP280;10206;48.012;10.030;2024-02-21T07:02:23;95323.16;;;7.42
31528;BMP280;10206;48.012;10.030;2024-02-21T07:04:49;95327.53;;;7.45
31528;BMP280;10206;48.012;10.030;2024-02-21T07:07:15;95328.72;;;7.57
31528;BMP280;10206;48.012;10.030;2024-02-21T07:09:41;95323.75;;;7.90
31528;BMP280;10206;48.012;10.030;2024-02-21T07:12:08;95328.34;;;8.23
31528;BMP280;10206;48.012;10.030;2024-02-21T07:14:35;95327.28;;;8.26
31528;BMP280;10206;48.012;10.030;2024-02-21T07:17:01;95335.19;;;8.52
31528;BMP280;10206;48.012;10.030;2024-02-21T07:19:27;95326.78;;;8.78
31528;BMP280;10206;48.012;10.030;2024-02-21T07:21:53;95327.19;;;8.98
31528;BMP280;10206;48.012;10.030;2024-02-21T07:24:19;95330.53;;;9.04
31528;BMP280;10206;48.012;10.030;2024-02-21T07:26:45;95333.88;;;9.47
31528;BMP280;10206;48.012;10.030;2024-02-21T07:29:11;95333.88;;;9.55
31528;BMP280;10206;48.012;10.030;2024-02-21T07:31:44;95337.31;;;9.78
31528;BMP280;10206;48.012;10.030;2024-02-21T07:34:11;95316.97;;;10.02
31528;BMP280;10206;48.012;10.030;2024-02-21T07:36:37;95328.78;;;10.19
31528;BMP280;10206;48.012;10.030;2024-02-21T07:39:04;95317.16;;;9.89
31528;BMP280;10206;48.012;10.030;2024-02-21T07:41:31;95322.25;;;9.92
31528;BMP280;10206;48.012;10.030;2024-02-21T07:43:57;95316.41;;;10.11
31528;BMP280;10206;48.012;10.030;2024-02-21T07:46:23;95313.88;;;10.05
31528;BMP280;10206;48.012;10.030;2024-02-21T07:48:50;95318.19;;;10.23
31528;BMP280;10206;48.012;10.030;2024-02-21T07:51:16;95320.91;;;10.23
31528;BMP280;10206;48.012;10.030;2024-02-21T07:53:44;95328.56;;;10.17
31528;BMP280;10206;48.012;10.030;2024-02-21T07:56:15;95326.81;;;9.90
31528;BMP280;10206;48.012;10.030;2024-02-21T07:58:41;95318.94;;;10.24
31528;BMP280;10206;48.012;10.030;2024-02-21T08:01:08;95317.03;;;10.49
31528;BMP280;10206;48.012;10.030;2024-02-21T08:03:34;95308.69;;;10.47
31528;BMP280;10206;48.012;10.030;2024-02-21T08:06:00;95313.47;;;10.71
31528;BMP280;10206;48.012;10.030;2024-02-21T08:08:26;95313.91;;;10.68
31528;BMP280;10206;48.012;10.030;2024-02-21T08:10:52;95306.97;;;10.67
31528;BMP280;10206;48.012;10.030;2024-02-21T08:13:18;95294.47;;;10.56
31528;BMP280;10206;48.012;10.030;2024-02-21T08:15:45;95296.38;;;10.23
31528;BMP280;10206;48.012;10.030;2024-02-21T08:18:11;95302.00;;;10.80
31528;BMP280;10206;48.012;10.030;2024-02-21T08:20:37;95303.19;;;10.94
31528;BMP280;10206;48.012;10.030;2024-02-21T08:23:03;95297.28;;;11.13
31528;BMP280;10206;48.012;10.030;2024-02-21T08:25:29;95304.88;;;10.90
31528;BMP280;10206;48.012;10.030;2024-02-21T08:27:59;95307.09;;;10.84
31528;BMP280;10206;48.012;10.030;2024-02-21T08:30:25;95304.69;;;10.88
31528;BMP280;10206;48.012;10.030;2024-02-21T08:32:52;95295.81;;;11.12
31528;BMP280;10206;48.012;10.030;2024-02-21T08:35:19;95300.78;;;11.55
31528;BMP280;10206;48.012;10.030;2024-02-21T08:37:48;95282.13;;;11.44
31528;BMP280;10206;48.012;10.030;2024-02-21T08:40:15;95280.19;;;11.37
31528;BMP280;10206;48.012;10.030;2024-02-21T08:42:43;95276.00;;;11.61
31528;BMP280;10206;48.012;10.030;2024-02-21T08:45:10;95273.03;;;10.92
31528;BMP280;10206;48.012;10.030;2024-02-21T08:47:39;95271.81;;;11.77
31528;BMP280;10206;48.012;10.030;2024-02-21T08:50:05;95275.59;;;11.40
31528;BMP280;10206;48.012;10.030;2024-02-21T08:52:32;95275.66;;;11.32
31528;BMP280;10206;48.012;10.030;2024-02-21T08:54:58;95280.13;;;11.62
31528;BMP280;10206;48.012;10.030;2024-02-21T08:57:24;95274.94;;;11.32
31528;BMP280;10206;48.012;10.030;2024-02-21T08:59:50;95276.00;;;11.36
31528;BMP280;10206;48.012;10.030;2024-02-21T09:02:16;95270.13;;;11.64
31528;BMP280;10206;48.012;10.030;2024-02-21T09:04:42;95272.41;;;11.76
31528;BMP280;10206;48.012;10.030;2024-02-21T09:07:10;95281.56;;;12.22
31528;BMP280;10206;48.012;10.030;2024-02-21T09:09:36;95281.41;;;12.20
31528;BMP280;10206;48.012;10.030;2024-02-21T09:12:06;95271.19;;;12.20
31528;BMP280;10206;48.012;10.030;2024-02-21T09:14:33;95275.34;;;12.04
31528;BMP280;10206;48.012;10.030;2024-02-21T09:16:59;95269.84;;;12.29
31528;BMP280;10206;48.012;10.030;2024-02-21T09:19:25;95264.00;;;12.86
31528;BMP280;10206;48.012;10.030;2024-02-21T09:21:51;95269.66;;;12.97
31528;BMP280;10206;48.012;10.030;2024-02-21T09:24:18;95271.09;;;12.28
31528;BMP280;10206;48.012;10.030;2024-02-21T09:26:44;95266.34;;;12.45
31528;BMP280;10206;48.012;10.030;2024-02-21T09:29:10;95269.31;;;12.57
31528;BMP280;10206;48.012;10.030;2024-02-21T09:31:36;95258.19;;;12.55
31528;BMP280;10206;48.012;10.030;2024-02-21T09:34:04;95258.03;;;12.80
31528;BMP280;10206;48.012;10.030;2024-02-21T09:36:31;95251.34;;;12.90
31528;BMP280;10206;48.012;10.030;2024-02-21T09:38:57;95244.50;;;12.82
31528;BMP280;10206;48.012;10.030;2024-02-21T09:41:27;95243.63;;;13.06
31528;BMP280;10206;48.012;10.030;2024-02-21T09:43:53;95244.84;;;12.95
31528;BMP280;10206;48.012;10.030;2024-02-21T09:46:43;95237.47;;;12.88
31528;BMP280;10206;48.012;10.030;2024-02-21T09:49:33;95236.75;;;12.88
31528;BMP280;10206;48.012;10.030;2024-02-21T09:52:02;95236.84;;;13.16
31528;BMP280;10206;48.012;10.030;2024-02-21T09:54:34;95237.06;;;13.28
31528;BMP280;10206;48.012;10.030;2024-02-21T09:57:01;95231.50;;;13.83
31528;BMP280;10206;48.012;10.030;2024-02-21T09:59:28;95240.28;;;14.20
31528;BMP280;10206;48.012;10.030;2024-02-21T10:01:56;95225.66;;;13.32
31528;BMP280;10206;48.012;10.030;2024-02-21T10:04:23;95227.19;;;13.80
31528;BMP280;10206;48.012;10.030;2024-02-21T10:06:49;95229.06;;;13.87
31528;BMP280;10206;48.012;10.030;2024-02-21T10:09:22;95232.22;;;13.84
31528;BMP280;10206;48.012;10.030;2024-02-21T10:11:50;95231.94;;;14.18
31528;BMP280;10206;48.012;10.030;2024-02-21T10:14:16;95217.06;;;13.64
31528;BMP280;10206;48.012;10.030;2024-02-21T10:16:45;95224.56;;;13.73
31528;BMP280;10206;48.012;10.030;2024-02-21T10:19:20;95215.66;;;13.82
31528;BMP280;10206;48.012;10.030;2024-02-21T10:22:03;95213.63;;;13.92
31528;BMP280;10206;48.012;10.030;2024-02-21T10:24:33;95208.84;;;13.64
31528;BMP280;10206;48.012;10.030;2024-02-21T10:27:03;95210.16;;;13.91
31528;BMP280;10206;48.012;10.030;2024-02-21T10:29:32;95210.56;;;13.78
31528;BMP280;10206;48.012;10.030;2024-02-21T10:32:12;95207.78;;;14.26
31528;BMP280;10206;48.012;10.030;2024-02-21T10:34:40;95201.78;;;14.58
31528;BMP280;10206;48.012;10.030;2024-02-21T10:37:08;95197.41;;;14.34
31528;BMP280;10206;48.012;10.030;2024-02-21T10:39:38;95199.19;;;13.91
31528;BMP280;10206;48.012;10.030;2024-02-21T10:42:05;95185.53;;;14.41
31528;BMP280;10206;48.012;10.030;2024-02-21T10:44:38;95180.19;;;14.34
31528;BMP280;10206;48.012;10.030;2024-02-21T10:47:09;95176.38;;;14.88
31528;BMP280;10206;48.012;10.030;2024-02-21T10:49:40;95167.78;;;15.25
31528;BMP280;10206;48.012;10.030;2024-02-21T10:52:33;95159.88;;;14.88
31528;BMP280;10206;48.012;10.030;2024-02-21T10:55:08;95160.59;;;14.99
31528;BMP280;10206;48.012;10.030;2024-02-21T10:57:38;95159.47;;;14.92
31528;BMP280;10206;48.012;10.030;2024-02-21T11:00:05;95155.31;;;14.81
31528;BMP280;10206;48.012;10.030;2024-02-21T11:02:34;95142.41;;;14.63
31528;BMP280;10206;48.012;10.030;2024-02-21T11:05:02;95141.28;;;14.77
31528;BMP280;10206;48.012;10.030;2024-02-21T11:07:30;95137.84;;;14.46
31528;BMP280;10206;48.012;10.030;2024-02-21T11:09:58;95137.97;;;14.79
31528;BMP280;10206;48.012;10.030;2024-02-21T11:12:25;95140.13;;;14.80
31528;BMP280;10206;48.012;10.030;2024-02-21T11:15:03;95135.50;;;15.46
31528;BMP280;10206;48.012;10.030;2024-02-21T11:17:30;95127.13;;;15.77
31528;BMP280;10206;48.012;10.030;2024-02-21T11:19:56;95123.75;;;15.67
31528;BMP280;10206;48.012;10.030;2024-02-21T11:22:22;95118.25;;;15.67
31528;BMP280;10206;48.012;10.030;2024-02-21T11:24:50;95113.25;;;15.42
31528;BMP280;10206;48.012;10.030;2024-02-21T11:27:23;95098.16;;;15.32
31528;BMP280;10206;48.012;10.030;2024-02-21T11:29:57;95095.63;;;16.01
31528;BMP280;10206;48.012;10.030;2024-02-21T11:32:24;95096.22;;;16.11
31528;BMP280;10206;48.012;10.030;2024-02-21T11:34:58;95092.88;;;16.13
31528;BMP280;10206;48.012;10.030;2024-02-21T11:37:34;95077.63;;;15.89
31528;BMP280;10206;48.012;10.030;2024-02-21T11:40:03;95076.59;;;16.17
31528;BMP280;10206;48.012;10.030;2024-02-21T11:42:30;95078.41;;;16.35
31528;BMP280;10206;48.012;10.030;2024-02-21T11:44:57;95063.50;;;15.71
31528;BMP280;10206;48.012;10.030;2024-02-21T11:47:23;95059.34;;;15.93
31528;BMP280;10206;48.012;10.030;2024-02-21T11:49:50;95055.31;;;16.29
31528;BMP280;10206;48.012;10.030;2024-02-21T11:52:23;95057.44;;;16.53
31528;BMP280;10206;48.012;10.030;2024-02-21T11:54:51;95047.06;;;16.40
31528;BMP280;10206;48.012;10.030;2024-02-21T11:57:18;95042.97;;;15.95
31528;BMP280;10206;48.012;10.030;2024-02-21T11:59:47;95033.88;;;16.27
31528;BMP280;10206;48.012;10.030;2024-02-21T12:02:14;95038.75;;;16.64
31528;BMP280;10206;48.012;10.030;2024-02-21T12:04:41;95031.84;;;16.88
31528;BMP280;10206;48.012;10.030;2024-02-21T12:07:08;95028.84;;;16.35
31528;BMP280;10206;48.012;10.030;2024-02-21T12:09:34;95025.63;;;16.50
31528;BMP280;10206;48.012;10.030;2024-02-21T12:12:05;95016.28;;;16.09
31528;BMP280;10206;48.012;10.030;2024-02-21T12:14:32;95012.41;;;15.68
31528;BMP280;10206;48.012;10.030;2024-02-21T12:16:59;95006.13;;;16.12
31528;BMP280;10206;48.012;10.030;2024-02-21T12:19:30;95001.69;;;15.95
31528;BMP280;10206;48.012;10.030;2024-02-21T12:21:58;94997.03;;;15.86
31528;BMP280;10206;48.012;10.030;2024-02-21T12:24:26;94991.00;;;15.43
31528;BMP280;10206;48.012;10.030;2024-02-21T12:26:53;95000.78;;;15.46
31528;BMP280;10206;48.012;10.030;2024-02-21T12:29:20;94988.63;;;15.84
31528;BMP280;10206;48.012;10.030;2024-02-21T12:31:46;94978.38;;;15.96
31528;BMP280;10206;48.012;10.030;2024-02-21T12:34:14;94978.84;;;15.81
31528;BMP280;10206;48.012;10.030;2024-02-21T12:36:46;94975.84;;;15.89
31528;BMP280;10206;48.012;10.030;2024-02-21T12:39:13;94971.28;;;16.05
31528;BMP280;10206;48.012;10.030;2024-02-21T12:41:40;94972.84;;;16.19
31528;BMP280;10206;48.012;10.030;2024-02-21T12:44:10;94970.75;;;16.54
31528;BMP280;10206;48.012;10.030;2024-02-21T12:46:37;94962.41;;;16.29
31528;BMP280;10206;48.012;10.030;2024-02-21T12:49:04;94942.72;;;15.98
31528;BMP280;10206;48.012;10.030;2024-02-21T12:51:31;94938.53;;;15.51
31528;BMP280;10206;48.012;10.030;2024-02-21T12:53:57;94930.75;;;15.47
31528;BMP280;10206;48.012;10.030;2024-02-21T12:56:25;94936.47;;;15.40
31528;BMP280;10206;48.012;10.030;2024-02-21T12:58:53;94930.16;;;15.72
31528;BMP280;10206;48.012;10.030;2024-02-21T13:01:19;94929.19;;;16.02
31528;BMP280;10206;48.012;10.030;2024-02-21T13:03:45;94918.75;;;16.24
31528;BMP280;10206;48.012;10.030;2024-02-21T13:06:12;94908.53;;;16.38
31528;BMP280;10206;48.012;10.030;2024-02-21T13:08:39;94906.94;;;16.46
31528;BMP280;10206;48.012;10.030;2024-02-21T13:11:05;94901.34;;;16.95
31528;BMP280;10206;48.012;10.030;2024-02-21T13:13:32;94898.13;;;16.36
31528;BMP280;10206;48.012;10.030;2024-02-21T13:15:58;94887.94;;;16.64
31528;BMP280;10206;48.012;10.030;2024-02-21T13:18:25;94884.78;;;16.19
31528;BMP280;10206;48.012;10.030;2024-02-21T13:20:51;94881.44;;;16.09
31528;BMP280;10206;48.012;10.030;2024-02-21T13:23:17;94873.28;;;16.11
31528;BMP280;10206;48.012;10.030;2024-02-21T13:25:43;94861.84;;;16.40
31528;BMP280;10206;48.012;10.030;2024-02-21T13:28:12;94861.69;;;16.49
31528;BMP280;10206;48.012;10.030;2024-02-21T13:30:40;94848.13;;;16.28
31528;BMP280;10206;48.012;10.030;2024-02-21T13:33:07;94838.66;;;16.56
31528;BMP280;10206;48.012;10.030;2024-02-21T13:35:33;94842.78;;;16.69
31528;BMP280;10206;48.012;10.030;2024-02-21T13:38:03;94834.88;;;16.50
31528;BMP280;10206;48.012;10.030;2024-02-21T13:40:29;94829.66;;;16.31
31528;BMP280;10206;48.012;10.030;2024-02-21T13:42:55;94829.41;;;16.02
31528;BMP280;10206;48.012;10.030;2024-02-21T13:45:21;94825.06;;;15.74
31528;BMP280;10206;48.012;10.030;2024-02-21T13:47:47;94819.53;;;16.22
31528;BMP280;10206;48.012;10.030;2024-02-21T13:50:14;94819.28;;;15.81
31528;BMP280;10206;48.012;10.030;2024-02-21T13:52:44;94812.50;;;15.59
31528;BMP280;10206;48.012;10.030;2024-02-21T13:55:10;94811.78;;;15.58
31528;BMP280;10206;48.012;10.030;2024-02-21T13:57:39;94811.94;;;15.26
31528;BMP280;10206;48.012;10.030;2024-02-21T14:00:05;94809.56;;;15.32
31528;BMP280;10206;48.012;10.030;2024-02-21T14:02:31;94799.63;;;15.38
31528;BMP280;10206;48.012;10.030;2024-02-21T14:04:58;94794.22;;;15.52
31528;BMP280;10206;48.012;10.030;2024-02-21T14:07:24;94800.94;;;15.49